This is the latest recevied weather packets stored in our database for station/object KF6RAL-6. If no packets are shown the sender has not sent any weather packets the latest 10 day(s).
| Time | Temp. | Humidity | Pressure | Rain* | Wind** | Luminosity | Snow |
|---|---|---|---|---|---|---|---|
| 1787952835 | 28.33° C | 54% | 1013.4 hPa | 0 mm | - | - | - |
| 1787952414 | 28.33° C | 54% | 1013.6 hPa | 0 mm | - | - | - |
| 1787951993 | 28.33° C | 50% | 1013.8 hPa | 0 mm | - | - | - |
| 1787951574 | 28.33° C | 48% | 1013.9 hPa | 0 mm | - | - | - |
| 1787951151 | 28.89° C | 50% | 1014.6 hPa | 0 mm | - | - | - |
| 1787950730 | 29.44° C | 45% | 1014.8 hPa | 0 mm | - | - | - |
| 1787950309 | 28.89° C | 50% | 1015 hPa | 0 mm | - | - | - |
| 1787949888 | 28.89° C | 46% | 1015.1 hPa | 0 mm | - | - | - |
| 1787949467 | 28.89° C | 44% | 1015.3 hPa | 0 mm | - | - | - |
| 1787949048 | 28.89° C | 47% | 1015.3 hPa | 0 mm | - | - | - |
| 1787948204 | 28.89° C | 45% | 1015.7 hPa | 0 mm | - | - | - |
| 1787947783 | 28.89° C | 43% | 1015 hPa | 0 mm | - | - | - |
| 1787947362 | 28.33° C | 48% | 1015.9 hPa | 0 mm | - | - | - |
| 1787946941 | 27.78° C | 53% | 1015.4 hPa | 0 mm | - | - | - |
| 1787946520 | 27.22° C | 56% | 1015.4 hPa | 0 mm | - | - | - |
| 1787946099 | 27.22° C | 59% | 1016.3 hPa | 0 mm | - | - | - |
| 1787945678 | 27.22° C | 56% | 1015.7 hPa | 0 mm | - | - | - |
| 1787945258 | 27.22° C | 55% | 1015.8 hPa | 0 mm | - | - | - |
| 1787944836 | 27.22° C | 55% | 1015.9 hPa | 0 mm | - | - | - |
| 1787944415 | 28.33° C | 52% | 1016.6 hPa | 0 mm | - | - | - |
| 1787943994 | 28.89° C | 37% | 1016.1 hPa | 0 mm | - | - | - |
| 1787943573 | 28.89° C | 38% | 1016.2 hPa | 0 mm | - | - | - |
| 1787943152 | 28.89° C | 38% | 1016.8 hPa | 0 mm | - | - | - |
| 1787942731 | 28.89° C | 39% | 1016.9 hPa | 0 mm | - | - | - |
| 1787942310 | 28.33° C | 44% | 1016.8 hPa | 0 mm | - | - | - |
* Rain latest hour (hover to see other rain measurements)
** Current wind speed in m/s (hover to see current wind gust speed)